Time;durP1;ratioP1;P1;durP2;ratioP2;P2;SDS_P1;SDS_P2;PMS_P1;PMS_P2;Temp;Humidity;BMP_temperature;BMP_pressure;BME280_temperature;BME280_humidity;BME280_pressure;Samples;Min_cycle;Max_cycle;Signal;HPM_P1;HPM_P2
2023/04/20 00:00:46;;;;;;;;;;;;;;;30.72;69.21;100548.03;5093528;27;65409;-40
2023/04/20 00:03:20;;;;;;;;;;;;;;;30.78;69.14;100546.31;5092272;27;70600;-40
2023/04/20 00:05:50;;;;;;;;;;;;;;;30.81;69.69;100551.28;5096011;27;65778;-40
2023/04/20 00:08:20;;;;;;;;;;;;;;;30.84;70.07;100554.41;5090198;27;70514;-40
2023/04/20 00:10:51;;;;;;;;;;;;;;;30.87;70.22;100561.22;5097810;27;66095;-40
2023/04/20 00:13:21;;;;;;;;;;;;;;;30.88;69.67;100554.75;5109164;27;69374;-40
2023/04/20 00:15:51;;;;;;;;;;;;;;;30.91;70.23;100557.00;5087880;27;66077;-45
2023/04/20 00:18:21;;;;;;;;;;;;;;;30.95;70.31;100563.59;5094329;27;69798;-40
2023/04/20 00:20:52;;;;;;;;;;;;;;;30.96;70.47;100567.16;5096449;27;65994;-40
2023/04/20 00:23:22;;;;;;;;;;;;;;;30.98;70.76;100565.88;5096145;27;70592;-40
2023/04/20 00:25:53;;;;;;;;;;;;;;;30.99;70.27;100564.00;5096265;27;66315;-40
2023/04/20 00:28:23;;;;;;;;;;;;;;;31.01;70.29;100578.97;5094917;27;71285;-40
2023/04/20 00:30:53;;;;;;;;;;;;;;;31.00;70.32;100582.72;5106645;27;66013;-45
2023/04/20 00:33:24;;;;;;;;;;;;;;;30.98;72.00;100592.97;5095427;27;69112;-41
2023/04/20 00:35:55;;;;;;;;;;;;;;;30.99;72.70;100589.19;5093806;27;66169;-41
2023/04/20 00:38:26;;;;;;;;;;;;;;;30.97;73.39;100585.06;5096363;27;69476;-41
2023/04/20 00:40:59;;;;;;;;;;;;;;;30.97;74.06;100588.59;5094917;27;66708;-41
2023/04/20 00:43:31;;;;;;;;;;;;;;;31.00;72.86;100587.31;5094473;27;70299;-40
2023/04/20 00:46:02;;;;;;;;;;;;;;;31.03;73.18;100593.09;5091445;27;66455;-40
2023/04/20 00:48:32;;;;;;;;;;;;;;;31.04;73.01;100586.63;5108471;27;71041;-43
2023/04/20 00:51:04;;;;;;;;;;;;;;;31.04;72.12;100594.75;5093010;27;66605;-41
2023/04/20 00:53:36;;;;;;;;;;;;;;;31.06;70.45;100591.81;5114683;27;70257;-42
2023/04/20 00:56:07;;;;;;;;;;;;;;;31.08;69.09;100585.09;5089782;27;65448;-42
2023/04/20 00:58:37;;;;;;;;;;;;;;;31.13;68.81;100587.13;5094012;27;69955;-41
2023/04/20 01:01:14;;;;;;;;;;;;;;;31.15;68.55;100585.84;5093014;27;66677;-39
2023/04/20 01:03:46;;;;;;;;;;;;;;;31.20;67.63;100587.03;5091512;27;70293;-41
2023/04/20 01:06:17;;;;;;;;;;;;;;;31.23;67.06;100589.28;5090997;27;66662;-41
2023/04/20 01:08:49;;;;;;;;;;;;;;;31.26;66.92;100591.53;5095878;27;70031;-42
2023/04/20 01:11:20;;;;;;;;;;;;;;;31.28;66.47;100594.84;5089008;27;65252;-42
2023/04/20 01:13:50;;;;;;;;;;;;;;;31.31;66.28;100588.97;5088287;27;69934;-42
2023/04/20 01:16:21;;;;;;;;;;;;;;;31.33;66.75;100597.69;5099373;27;66655;-42
2023/04/20 01:18:52;;;;;;;;;;;;;;;31.35;65.98;100601.84;5104218;27;71751;-41
2023/04/20 01:21:22;;;;;;;;;;;;;;;31.37;66.14;100602.47;5100976;27;67281;-42
2023/04/20 01:23:52;;;;;;;;;;;;;;;31.39;66.00;100603.03;5094325;27;69104;-41
2023/04/20 01:26:24;;;;;;;;;;;;;;;31.41;65.76;100605.53;5096577;27;67092;-41
2023/04/20 01:28:54;;;;;;;;;;;;;;;31.43;65.79;100608.84;5096124;27;69859;-42
2023/04/20 01:31:25;;;;;;;;;;;;;;;31.45;65.98;100612.13;5111851;27;66128;-41
2023/04/20 01:33:55;;;;;;;;;;;;;;;31.46;65.89;100619.22;5095071;27;68875;-41
2023/04/20 01:36:25;;;;;;;;;;;;;;;31.48;65.47;100611.72;5092742;27;66008;-41
2023/04/20 01:38:56;;;;;;;;;;;;;;;31.28;65.82;100571.28;5089528;27;70181;-41
2023/04/20 01:41:29;;;;;;;;;;;;;;;31.53;65.99;100622.66;5092678;27;64601;-42
2023/04/20 01:43:59;;;;;;;;;;;;;;;31.55;65.37;100617.03;5094068;27;70682;-41
2023/04/20 01:46:31;;;;;;;;;;;;;;;31.56;65.08;100619.47;5102461;27;66873;-42
2023/04/20 01:49:02;;;;;;;;;;;;;;;31.59;65.33;100616.34;5089097;27;69342;-40
2023/04/20 01:51:32;;;;;;;;;;;;;;;31.61;65.14;100610.66;5088835;27;66067;-41
2023/04/20 01:54:03;;;;;;;;;;;;;;;31.62;64.99;100612.31;5090347;27;69763;-42
2023/04/20 01:56:34;;;;;;;;;;;;;;;31.65;64.87;100621.88;5095801;27;68276;-40
2023/04/20 01:59:05;;;;;;;;;;;;;;;31.67;64.65;100614.34;5092619;27;70360;-42
2023/04/20 02:01:35;;;;;;;;;;;;;;;31.68;64.70;100621.41;5105801;27;66076;-41
2023/04/20 02:04:05;;;;;;;;;;;;;;;31.71;64.64;100615.53;5092882;27;70662;-42
2023/04/20 02:06:36;;;;;;;;;;;;;;;31.72;64.86;100612.56;5085644;27;65089;-42
2023/04/20 02:09:09;;;;;;;;;;;;;;;31.76;65.11;100612.94;5093945;27;70452;-43
2023/04/20 02:11:40;;;;;;;;;;;;;;;31.77;65.08;100620.03;5096425;27;66678;-42
2023/04/20 02:14:10;;;;;;;;;;;;;;;31.79;64.54;100620.63;5087772;27;70333;-41
2023/04/20 02:16:42;;;;;;;;;;;;;;;31.82;64.92;100612.03;5101528;27;66826;-42
2023/04/20 02:19:13;;;;;;;;;;;;;;;31.84;64.53;100609.88;5087918;27;70606;-41
2023/04/20 02:21:43;;;;;;;;;;;;;;;31.87;64.78;100620.25;5096446;27;66686;-41
2023/04/20 02:24:15;;;;;;;;;;;;;;;31.88;64.32;100616.50;5093859;27;69897;-42
2023/04/20 02:26:46;;;;;;;;;;;;;;;31.91;64.51;100624.22;5086518;27;66607;-42
2023/04/20 02:29:17;;;;;;;;;;;;;;;31.94;64.40;100615.59;5092855;27;69870;-41
2023/04/20 02:31:48;;;;;;;;;;;;;;;31.96;64.34;100613.47;5093733;27;67088;-42
2023/04/20 02:34:18;;;;;;;;;;;;;;;31.99;64.70;100612.19;5087511;27;70587;-41
2023/04/20 02:36:48;;;;;;;;;;;;;;;32.02;64.50;100606.28;5092782;27;65941;-42
2023/04/20 02:39:18;;;;;;;;;;;;;;;32.03;64.15;100608.75;5100568;27;70498;-42
2023/04/20 02:41:49;;;;;;;;;;;;;;;32.05;64.01;100603.94;5097024;27;66913;-42
2023/04/20 02:44:19;;;;;;;;;;;;;;;32.08;63.95;100604.53;5111967;27;69619;-42
2023/04/20 02:46:49;;;;;;;;;;;;;;;32.11;63.88;100599.44;5117482;27;66757;-42
2023/04/20 02:49:22;;;;;;;;;;;;;;;32.13;64.02;100593.81;5105366;27;70612;-42
2023/04/20 02:51:52;;;;;;;;;;;;;;;32.16;63.77;100596.03;5084121;27;66435;-42
2023/04/20 02:54:23;;;;;;;;;;;;;;;32.19;63.74;100592.84;5089060;27;69769;-41
2023/04/20 02:56:54;;;;;;;;;;;;;;;32.21;63.73;100593.44;5090781;27;66391;-43
2023/04/20 02:59:26;;;;;;;;;;;;;;;32.24;63.26;100582.13;5091538;27;70459;-41
2023/04/20 03:02:07;;;;;;;;;;;;;;;32.27;63.07;100584.34;5095439;27;66751;-42
2023/04/20 03:04:38;;;;;;;;;;;;;;;32.30;63.12;100592.03;5103400;27;70428;-41
2023/04/20 03:07:20;;;;;;;;;;;;;;;32.32;63.15;100581.75;5103591;27;65421;-41
2023/04/20 03:09:50;;;;;;;;;;;;;;;32.35;62.94;100580.47;5098829;27;70243;-42
2023/04/20 03:12:25;;;;;;;;;;;;;;;32.37;62.78;100587.28;5096536;27;66192;-42
2023/04/20 03:15:22;;;;;;;;;;;;;;;32.40;62.70;100581.41;5086506;27;69809;-43
2023/04/20 03:18:21;;;;;;;;;;;;;;;32.42;62.46;100581.97;5070651;27;66157;-42
2023/04/20 03:20:52;;;;;;;;;;;;;;;32.45;62.50;100578.78;5085483;27;70099;-41
2023/04/20 03:23:23;;;;;;;;;;;;;;;32.48;62.40;100577.50;5093575;27;66428;-41
2023/04/20 03:25:54;;;;;;;;;;;;;;;32.51;62.01;100576.19;5106599;27;69715;-41
2023/04/20 03:28:36;;;;;;;;;;;;;;;32.53;61.95;100574.06;5084417;27;65932;-42
2023/04/20 03:31:07;;;;;;;;;;;;;;;32.55;61.91;100571.97;5100800;27;69484;-41
2023/04/20 03:33:37;;;;;;;;;;;;;;;32.58;61.79;100571.47;5084102;27;67164;-41
2023/04/20 03:36:08;;;;;;;;;;;;;;;32.60;61.84;100574.78;5091911;27;69805;-42
2023/04/20 03:38:38;;;;;;;;;;;;;;;32.61;61.56;100560.13;5097857;27;66078;-41
2023/04/20 03:41:09;;;;;;;;;;;;;;;32.63;61.66;100558.84;5088558;27;69941;-42
2023/04/20 03:43:40;;;;;;;;;;;;;;;32.65;61.44;100558.56;5095307;27;66578;-41
2023/04/20 03:46:11;;;;;;;;;;;;;;;32.68;61.25;100552.66;5088073;27;70305;-41
2023/04/20 03:48:41;;;;;;;;;;;;;;;32.69;61.29;100546.19;5087395;27;66348;-41
2023/04/20 03:51:12;;;;;;;;;;;;;;;32.70;61.22;100537.78;5103631;27;69317;-42
2023/04/20 03:53:42;;;;;;;;;;;;;;;32.72;61.06;100535.66;5086296;27;66448;-41
2023/04/20 03:56:14;;;;;;;;;;;;;;;32.73;61.08;100536.47;5094481;27;70394;-41
2023/04/20 03:58:45;;;;;;;;;;;;;;;32.75;60.95;100534.34;5089183;27;68008;-41
2023/04/20 04:01:22;;;;;;;;;;;;;;;32.77;60.85;100525.97;5093923;27;69720;-42
2023/04/20 04:03:53;;;;;;;;;;;;;;;32.78;60.82;100528.44;5099089;27;66179;-42
2023/04/20 04:06:23;;;;;;;;;;;;;;;32.82;60.77;100528.75;5111682;27;69639;-41
2023/04/20 04:08:54;;;;;;;;;;;;;;;32.84;60.61;100524.75;5110033;27;66642;-42
2023/04/20 04:11:28;;;;;;;;;;;;;;;32.86;60.72;100519.91;5092324;27;70549;-41
2023/04/20 04:13:59;;;;;;;;;;;;;;;32.88;60.84;100511.53;5098490;27;66358;-41
2023/04/20 04:16:29;;;;;;;;;;;;;;;32.89;60.62;100513.97;5074533;27;69390;-41
2023/04/20 04:19:00;;;;;;;;;;;;;;;32.91;60.51;100509.13;5096757;27;66602;-42
2023/04/20 04:21:31;;;;;;;;;;;;;;;32.94;60.43;100511.34;5095850;27;69209;-41
2023/04/20 04:24:04;;;;;;;;;;;;;;;32.96;60.34;100504.84;5106101;27;67052;-40
2023/04/20 04:26:40;;;;;;;;;;;;;;;32.98;60.28;100511.69;5090303;27;69121;-41
2023/04/20 04:29:10;;;;;;;;;;;;;;;32.99;60.15;100507.91;5085688;27;67051;-42
2023/04/20 04:31:41;;;;;;;;;;;;;;;33.03;60.00;100506.38;5092088;27;69802;-42
2023/04/20 04:34:17;;;;;;;;;;;;;;;33.05;60.11;100506.97;5089983;27;66797;-41
2023/04/20 04:36:53;;;;;;;;;;;;;;;33.06;60.04;100492.31;5108459;27;69245;-41
2023/04/20 04:39:32;;;;;;;;;;;;;;;33.09;59.85;100501.88;5087403;27;65644;-40
2023/04/20 04:42:10;;;;;;;;;;;;;;;33.13;60.00;100492.97;5088885;27;69939;-42
2023/04/20 04:44:43;;;;;;;;;;;;;;;33.13;59.84;100481.28;5089101;27;64781;-41
2023/04/20 04:47:20;;;;;;;;;;;;;;;33.18;59.51;100492.22;5082780;27;70468;-41
2023/04/20 04:49:52;;;;;;;;;;;;;;;33.19;59.60;100479.50;5105067;27;67038;-41
2023/04/20 04:52:22;;;;;;;;;;;;;;;33.20;59.39;100481.94;5088737;27;69251;-41
2023/04/20 04:54:52;;;;;;;;;;;;;;;33.22;59.28;100485.25;5090838;27;67226;-41
2023/04/20 04:57:22;;;;;;;;;;;;;;;33.24;59.48;100472.25;5094280;27;70765;-41
2023/04/20 04:59:53;;;;;;;;;;;;;;;33.26;59.34;100480.13;5088047;27;65184;-43
2023/04/20 05:02:23;;;;;;;;;;;;;;;33.27;59.33;100466.31;5093158;27;70074;-42
2023/04/20 05:04:55;;;;;;;;;;;;;;;33.30;59.28;100465.81;5089320;27;66119;-41
2023/04/20 05:07:25;;;;;;;;;;;;;;;33.30;59.01;100451.41;5091628;27;69414;-41
2023/04/20 05:09:55;;;;;;;;;;;;;;;33.34;59.03;100452.53;5090794;27;66072;-39
2023/04/20 05:12:26;;;;;;;;;;;;;;;33.34;58.96;100442.50;5086929;27;70949;-42
2023/04/20 05:14:56;;;;;;;;;;;;;;;33.37;58.75;100444.72;5094372;27;66494;-44
2023/04/20 05:17:26;;;;;;;;;;;;;;;33.38;58.88;100440.94;5092948;27;69656;-41
2023/04/20 05:19:57;;;;;;;;;;;;;;;33.41;58.49;100438.81;5095053;27;65665;-42
2023/04/20 05:22:27;;;;;;;;;;;;;;;33.44;58.50;100432.88;5093713;27;70208;-43
2023/04/20 05:24:58;;;;;;;;;;;;;;;33.45;58.47;100429.06;5084929;27;66425;-41
2023/04/20 05:27:28;;;;;;;;;;;;;;;33.48;58.40;100428.56;5092754;27;69706;-41
2023/04/20 05:29:58;;;;;;;;;;;;;;;33.50;58.48;100429.97;5090384;27;66895;-42
2023/04/20 05:32:47;;;;;;;;;;;;;;;33.53;58.16;100425.97;5096753;27;69555;-41
2023/04/20 05:35:20;;;;;;;;;;;;;;;33.32;58.27;100387.56;5094943;27;66074;-42
2023/04/20 05:37:50;;;;;;;;;;;;;;;33.56;58.07;100415.41;5092095;27;70005;-46
2023/04/20 05:40:20;;;;;;;;;;;;;;;33.57;58.06;100406.19;5094802;27;66602;-42
2023/04/20 05:42:51;;;;;;;;;;;;;;;33.60;57.77;100402.13;5089784;27;70255;-42
2023/04/20 05:45:21;;;;;;;;;;;;;;;33.63;58.03;100401.63;5091305;27;66887;-43
2023/04/20 05:47:52;;;;;;;;;;;;;;;33.65;57.78;100391.31;5095706;27;70407;-41
2023/04/20 05:50:23;;;;;;;;;;;;;;;33.67;57.85;100389.16;5087646;27;65744;-42
2023/04/20 05:52:54;;;;;;;;;;;;;;;33.70;57.77;100385.13;5089625;27;69783;-41
2023/04/20 05:55:24;;;;;;;;;;;;;;;33.72;57.50;100375.66;5087608;27;66878;-41
2023/04/20 05:57:54;;;;;;;;;;;;;;;33.74;57.63;100368.06;5086422;27;69749;-41
2023/04/20 06:00:24;;;;;;;;;;;;;;;33.76;57.55;100360.44;5091468;27;66614;-41
2023/04/20 06:02:55;;;;;;;;;;;;;;;33.77;57.36;100356.69;5094098;27;70265;-42
2023/04/20 06:05:26;;;;;;;;;;;;;;;33.81;57.39;100351.53;5093161;27;65556;-42
2023/04/20 06:07:56;;;;;;;;;;;;;;;33.84;57.42;100350.22;5094311;27;70242;-42
2023/04/20 06:10:31;;;;;;;;;;;;;;;33.88;57.33;100340.47;5090286;27;65246;-41
2023/04/20 06:13:01;;;;;;;;;;;;;;;33.89;57.36;100336.69;5094174;27;69426;-41
2023/04/20 06:15:32;;;;;;;;;;;;;;;33.91;57.40;100334.53;5092140;27;66352;-41
2023/04/20 06:18:02;;;;;;;;;;;;;;;33.93;56.96;100326.91;5095185;27;70238;-42
2023/04/20 06:20:33;;;;;;;;;;;;;;;33.95;57.04;100322.06;5096371;27;67080;-41
2023/04/20 06:23:04;;;;;;;;;;;;;;;33.95;57.42;100319.34;5096759;27;70486;-42
2023/04/20 06:25:37;;;;;;;;;;;;;;;33.97;57.02;100309.84;5092022;27;65868;-41
2023/04/20 06:28:08;;;;;;;;;;;;;;;33.98;57.24;100303.31;5096522;27;70909;-41
2023/04/20 06:30:38;;;;;;;;;;;;;;;33.98;56.66;100291.59;5094196;27;66329;-42
2023/04/20 06:33:12;;;;;;;;;;;;;;;34.00;56.70;100290.28;5092730;27;70325;-43
2023/04/20 06:35:43;;;;;;;;;;;;;;;34.01;56.59;100285.66;5097888;27;65754;-42
2023/04/20 06:38:14;;;;;;;;;;;;;;;34.04;56.92;100279.69;5100955;27;70149;-43
2023/04/20 06:40:44;;;;;;;;;;;;;;;34.07;56.75;100279.19;5095383;27;66427;-41
2023/04/20 06:43:15;;;;;;;;;;;;;;;34.10;56.45;100270.56;5106192;27;69893;-43
2023/04/20 06:45:45;;;;;;;;;;;;;;;34.12;56.69;100271.09;5090894;27;66374;-42
2023/04/20 06:48:16;;;;;;;;;;;;;;;34.12;56.40;100265.66;5088721;27;70420;-42
2023/04/20 06:51:00;;;;;;;;;;;;;;;34.16;56.20;100266.81;5094964;27;65672;-42
2023/04/20 06:53:31;;;;;;;;;;;;;;;34.18;56.53;100261.91;5095431;27;70341;-41
2023/04/20 06:56:01;;;;;;;;;;;;;;;34.19;56.27;100258.13;5093160;27;67150;-41
2023/04/20 06:58:31;;;;;;;;;;;;;;;34.21;56.46;100258.69;5100646;27;69346;-41
2023/04/20 07:01:01;;;;;;;;;;;;;;;34.21;56.44;100245.06;5093273;27;66411;-42
2023/04/20 07:03:32;;;;;;;;;;;;;;;34.23;56.44;100242.91;5097137;27;70375;-43
2023/04/20 07:06:03;;;;;;;;;;;;;;;34.23;55.86;100240.16;5090805;27;66342;-42
2023/04/20 07:08:33;;;;;;;;;;;;;;;34.25;56.32;100232.56;5094595;27;69867;-41
2023/04/20 07:11:03;;;;;;;;;;;;;;;34.28;56.01;100224.97;5091913;27;66883;-42
2023/04/20 07:13:34;;;;;;;;;;;;;;;34.29;56.24;100226.59;5092587;27;69837;-43
2023/04/20 07:16:05;;;;;;;;;;;;;;;34.29;56.19;100226.59;5091971;27;66000;-42
2023/04/20 07:18:35;;;;;;;;;;;;;;;34.31;56.24;100224.47;5096462;27;70175;-44
2023/04/20 07:21:06;;;;;;;;;;;;;;;34.31;56.16;100214.38;5097993;27;65620;-42
2023/04/20 07:23:36;;;;;;;;;;;;;;;34.33;56.00;100211.41;5095210;27;70753;-43
2023/04/20 07:26:07;;;;;;;;;;;;;;;34.34;55.63;100213.03;5093601;27;65244;-42
2023/04/20 07:28:37;;;;;;;;;;;;;;;34.35;55.65;100210.06;5092851;27;70758;-41
2023/04/20 07:31:07;;;;;;;;;;;;;;;34.35;55.85;100207.34;5097030;27;66631;-43
2023/04/20 07:33:37;;;;;;;;;;;;;;;34.36;55.90;100205.44;5094085;27;70442;-42
2023/04/20 07:36:07;;;;;;;;;;;;;;;34.38;55.70;100209.56;5090938;27;66002;-43
2023/04/20 07:38:38;;;;;;;;;;;;;;;34.41;55.75;100202.78;5087824;27;70864;-41
2023/04/20 07:41:09;;;;;;;;;;;;;;;34.42;55.94;100207.13;5087901;27;66072;-41
2023/04/20 07:43:40;;;;;;;;;;;;;;;34.44;55.79;100213.13;5092202;27;69791;-42
2023/04/20 07:46:10;;;;;;;;;;;;;;;34.47;55.77;100207.16;5094069;27;66560;-42
2023/04/20 07:48:40;;;;;;;;;;;;;;;34.48;55.62;100203.34;5088788;27;69495;-42
2023/04/20 07:51:11;;;;;;;;;;;;;;;34.49;55.53;100185.91;5095229;27;66101;-41
2023/04/20 07:53:41;;;;;;;;;;;;;;;34.48;55.65;100187.00;5098104;27;70799;-43
2023/04/20 07:56:11;;;;;;;;;;;;;;;34.48;55.50;100187.00;5094304;27;66396;-42
2023/04/20 07:58:41;;;;;;;;;;;;;;;34.49;55.95;100183.19;5093705;27;70234;-41
2023/04/20 08:01:12;;;;;;;;;;;;;;;34.50;55.74;100178.59;5092354;27;66536;-41
2023/04/20 08:03:42;;;;;;;;;;;;;;;34.49;56.15;100177.75;5088725;27;70046;-43
2023/04/20 08:06:13;;;;;;;;;;;;;;;34.49;55.61;100188.63;5094775;27;67591;-41
2023/04/20 08:08:43;;;;;;;;;;;;;;;34.50;56.20;100184.03;5092208;27;70005;-42
2023/04/20 08:11:14;;;;;;;;;;;;;;;34.49;56.08;100177.75;5089805;27;65719;-41
2023/04/20 08:13:44;;;;;;;;;;;;;;;34.49;56.31;100183.19;5095964;27;70155;-41
2023/04/20 08:16:14;;;;;;;;;;;;;;;34.48;56.05;100185.09;5089373;27;66285;-42
2023/04/20 08:18:48;;;;;;;;;;;;;;;34.49;56.25;100194.09;5089337;27;62286;-42
2023/04/20 08:21:21;;;;;;;;;;;;;;;34.50;56.59;100189.50;5089114;27;66669;-41
2023/04/20 08:23:53;;;;;;;;;;;;;;;34.51;56.68;100177.50;5090109;27;70278;-43
2023/04/20 08:26:24;;;;;;;;;;;;;;;34.49;56.93;100166.84;5094345;27;67078;-41
2023/04/20 08:28:55;;;;;;;;;;;;;;;34.51;56.67;100170.16;5089405;27;69790;-41
2023/04/20 08:31:25;;;;;;;;;;;;;;;34.51;57.05;100185.66;5104897;27;66386;-42
2023/04/20 08:33:56;;;;;;;;;;;;;;;34.51;57.19;100181.03;5090871;27;69905;-42
2023/04/20 08:36:27;;;;;;;;;;;;;;;34.51;56.97;100170.16;5085490;27;67175;-42
2023/04/20 08:39:06;;;;;;;;;;;;;;;34.53;57.24;100156.28;5091094;27;69696;-42
2023/04/20 08:41:36;;;;;;;;;;;;;;;34.52;57.62;100171.81;5085431;27;67042;-41
2023/04/20 08:44:07;;;;;;;;;;;;;;;34.52;57.86;100176.41;5094793;27;69939;-41
2023/04/20 08:46:39;;;;;;;;;;;;;;;34.50;57.86;100190.31;5093345;27;65450;-41
2023/04/20 08:49:11;;;;;;;;;;;;;;;34.50;58.33;100184.03;5091331;27;69836;-42
2023/04/20 08:51:42;;;;;;;;;;;;;;;34.51;58.19;100202.00;5089229;27;66877;-42
2023/04/20 08:54:13;;;;;;;;;;;;;;;34.50;58.36;100200.38;5098466;27;70243;-42
2023/04/20 08:56:46;;;;;;;;;;;;;;;34.48;58.44;100200.63;5092429;27;66236;-41
2023/04/20 08:59:16;;;;;;;;;;;;;;;34.47;58.49;100201.72;5092557;27;70799;-41
2023/04/20 09:01:46;;;;;;;;;;;;;;;34.47;58.76;100194.38;5090229;27;66120;-42
2023/04/20 09:04:18;;;;;;;;;;;;;;;34.46;58.36;100183.72;5098544;27;70158;-42
2023/04/20 09:06:51;;;;;;;;;;;;;;;34.47;58.75;100177.22;5097710;27;65568;-41
2023/04/20 09:09:22;;;;;;;;;;;;;;;34.45;58.82;100171.19;5090683;27;69486;-41
2023/04/20 09:12:05;;;;;;;;;;;;;;;34.44;58.25;100175.81;5092872;27;66249;-41
2023/04/20 09:14:46;;;;;;;;;;;;;;;34.44;58.61;100169.56;5092721;27;68867;-43
2023/04/20 09:17:29;;;;;;;;;;;;;;;34.33;60.49;100176.03;5092280;27;67049;-41
2023/04/20 09:20:00;;;;;;;;;;;;;;;34.15;63.20;100182.66;5088233;27;68119;-41
2023/04/20 09:22:35;;;;;;;;;;;;;;;34.00;64.51;100169.72;5090509;27;65913;-43
2023/04/20 09:25:13;;;;;;;;;;;;;;;33.92;65.20;100178.34;5083110;27;70774;-43
2023/04/20 09:28:04;;;;;;;;;;;;;;;33.89;66.26;100173.44;5089962;27;65996;-43
2023/04/20 09:30:44;;;;;;;;;;;;;;;33.84;66.55;100173.38;5091767;27;70765;-41
2023/04/20 09:33:15;;;;;;;;;;;;;;;33.79;67.17;100172.28;5084531;27;65312;-42
2023/04/20 09:35:45;;;;;;;;;;;;;;;33.75;67.39;100162.97;5087832;27;70466;-42
2023/04/20 09:38:16;;;;;;;;;;;;;;;33.75;67.64;100167.59;5089098;27;67098;-41
2023/04/20 09:40:46;;;;;;;;;;;;;;;33.73;67.87;100176.00;5089850;27;70577;-41
2023/04/20 09:43:22;;;;;;;;;;;;;;;33.72;68.30;100178.97;5091291;27;66925;-43
2023/04/20 09:45:53;;;;;;;;;;;;;;;33.68;68.57;100170.50;5087392;27;69614;-41
2023/04/20 09:48:23;;;;;;;;;;;;;;;33.67;68.69;100179.75;5088801;27;66125;-42
2023/04/20 09:50:54;;;;;;;;;;;;;;;33.69;68.83;100174.88;5086945;27;70434;-42
2023/04/20 09:53:25;;;;;;;;;;;;;;;33.69;69.05;100196.63;5086096;27;66434;-43
2023/04/20 09:55:57;;;;;;;;;;;;;;;33.71;69.00;100194.50;5088917;27;70667;-43
2023/04/20 09:58:27;;;;;;;;;;;;;;;33.69;69.17;100195.81;5091839;27;66618;-43
2023/04/20 10:00:58;;;;;;;;;;;;;;;33.69;69.20;100187.66;5089285;27;70271;-42
2023/04/20 10:03:28;;;;;;;;;;;;;;;33.65;69.82;100184.59;5089798;27;66516;-44
2023/04/20 10:05:59;;;;;;;;;;;;;;;33.65;69.95;100181.06;5091310;27;70165;-43
2023/04/20 10:08:39;;;;;;;;;;;;;;;33.64;69.89;100182.97;5091406;27;65951;-44
2023/04/20 10:11:10;;;;;;;;;;;;;;;33.64;70.43;100177.53;5088690;27;70053;-43
2023/04/20 10:13:41;;;;;;;;;;;;;;;33.64;70.83;100190.31;5090679;27;66713;-45
2023/04/20 10:16:20;;;;;;;;;;;;;;;33.65;71.12;100192.78;5088694;27;69708;-45
2023/04/20 10:18:58;;;;;;;;;;;;;;;33.65;70.73;100184.59;5091489;27;65170;-45
2023/04/20 10:21:32;;;;;;;;;;;;;;;33.63;70.64;100181.34;5090683;27;70828;-45
2023/04/20 10:24:03;;;;;;;;;;;;;;;33.64;70.76;100187.59;5090838;27;65693;-44
2023/04/20 10:26:36;;;;;;;;;;;;;;;33.62;70.85;100197.91;5088603;27;69293;-45
2023/04/20 10:29:07;;;;;;;;;;;;;;;33.58;71.64;100192.16;5092585;27;66829;-42
2023/04/20 10:31:40;;;;;;;;;;;;;;;33.57;71.60;100204.94;5090405;27;70619;-44
2023/04/20 10:34:10;;;;;;;;;;;;;;;33.55;72.09;100219.88;5092543;27;66302;-44
2023/04/20 10:36:41;;;;;;;;;;;;;;;33.54;72.22;100221.78;5091048;27;70408;-43
2023/04/20 10:39:15;;;;;;;;;;;;;;;33.52;72.59;100217.63;5093440;27;66269;-42
2023/04/20 10:41:54;;;;;;;;;;;;;;;33.53;72.94;100213.84;5091618;27;69510;-43
2023/04/20 10:44:24;;;;;;;;;;;;;;;33.50;73.31;100211.63;5087756;27;66787;-43
2023/04/20 10:46:55;;;;;;;;;;;;;;;33.49;73.77;100221.69;5085295;27;69914;-45
2023/04/20 10:49:27;;;;;;;;;;;;;;;33.54;73.64;100231.81;5087724;27;66667;-44
2023/04/20 10:51:57;;;;;;;;;;;;;;;33.63;72.73;100235.75;5098007;27;69822;-44
2023/04/20 10:54:35;;;;;;;;;;;;;;;33.69;71.97;100225.75;5093913;27;65545;-46
2023/04/20 10:57:06;;;;;;;;;;;;;;;33.75;71.20;100232.88;5088468;27;69245;-45
2023/04/20 10:59:37;;;;;;;;;;;;;;;33.78;70.98;100233.16;5093572;27;66689;-44
2023/04/20 11:02:09;;;;;;;;;;;;;;;33.85;70.66;100243.88;5088847;27;70534;-45
2023/04/20 11:04:40;;;;;;;;;;;;;;;33.85;70.45;100248.47;5099477;27;66131;-44
2023/04/20 11:07:13;;;;;;;;;;;;;;;33.89;70.18;100246.91;5091335;27;69830;-45
2023/04/20 11:09:43;;;;;;;;;;;;;;;33.90;69.67;100245.81;5089547;27;66206;-45
2023/04/20 11:12:14;;;;;;;;;;;;;;;33.90;69.58;100238.47;5104399;27;70250;-44
2023/04/20 11:14:52;;;;;;;;;;;;;;;33.92;69.39;100246.38;5090860;27;65864;-45
2023/04/20 11:17:34;;;;;;;;;;;;;;;33.91;69.35;100258.34;5094552;27;70777;-44
2023/04/20 11:20:13;;;;;;;;;;;;;;;33.93;69.14;100261.63;5095320;27;66781;-45
2023/04/20 11:22:43;;;;;;;;;;;;;;;33.91;69.04;100253.72;5100073;27;70379;-44
2023/04/20 11:25:13;;;;;;;;;;;;;;;33.92;69.01;100249.09;5100186;27;67056;-43
2023/04/20 11:27:44;;;;;;;;;;;;;;;33.93;68.98;100245.28;5091214;27;70092;-46
2023/04/20 11:30:15;;;;;;;;;;;;;;;33.94;68.74;100246.94;5100673;27;66563;-45
2023/04/20 11:32:53;;;;;;;;;;;;;;;33.92;68.74;100249.09;5096766;27;70096;-44
2023/04/20 11:35:23;;;;;;;;;;;;;;;33.91;68.86;100261.06;5087820;27;66924;-45
2023/04/20 11:37:56;;;;;;;;;;;;;;;33.91;68.74;100274.69;5094618;27;70489;-45
2023/04/20 11:40:26;;;;;;;;;;;;;;;33.91;68.75;100291.00;5094414;27;66464;-45
2023/04/20 11:42:58;;;;;;;;;;;;;;;33.89;68.79;100293.16;5098941;27;70210;-45
2023/04/20 11:45:32;;;;;;;;;;;;;;;33.90;68.38;100294.78;5099157;27;66292;-45
2023/04/20 11:48:04;;;;;;;;;;;;;;;33.89;68.42;100307.56;5097480;27;69898;-45
2023/04/20 11:50:36;;;;;;;;;;;;;;;33.88;67.98;100318.69;5098970;27;66153;-44
2023/04/20 11:53:13;;;;;;;;;;;;;;;33.87;67.82;100322.50;5095925;27;70677;-44
2023/04/20 11:55:44;;;;;;;;;;;;;;;33.87;67.61;100338.81;5098674;27;66465;-45
2023/04/20 11:58:15;;;;;;;;;;;;;;;33.85;67.91;100330.09;5095217;27;70126;-44
2023/04/20 12:00:45;;;;;;;;;;;;;;;33.84;67.68;100328.44;5094041;27;66822;-44
2023/04/20 12:03:16;;;;;;;;;;;;;;;33.83;67.63;100316.75;5094152;27;70082;-44
2023/04/20 12:06:15;;;;;;;;;;;;;;;33.81;67.59;100314.28;5075714;27;66105;-44
2023/04/20 12:08:52;;;;;;;;;;;;;;;33.80;67.58;100323.53;5094389;27;69855;-44
2023/04/20 12:11:29;;;;;;;;;;;;;;;33.73;68.58;100322.88;5084508;27;67287;-44
2023/04/20 12:14:22;;;;;;;;;;;;;;;33.57;69.73;100321.03;5063788;27;70784;-43
2023/04/20 12:16:53;;;;;;;;;;;;;;;33.48;70.32;100325.25;5096779;27;67414;-44
2023/04/20 12:19:26;;;;;;;;;;;;;;;33.42;70.21;100332.50;5110718;27;69513;-43
2023/04/20 12:21:57;;;;;;;;;;;;;;;33.38;70.41;100326.75;5111971;27;66946;-44
2023/04/20 12:24:27;;;;;;;;;;;;;;;33.33;70.34;100321.25;5091666;27;70223;-43
2023/04/20 12:26:58;;;;;;;;;;;;;;;33.28;70.55;100321.16;5091090;27;66161;-44
2023/04/20 12:29:31;;;;;;;;;;;;;;;33.28;70.08;100321.16;5089682;27;70866;-44
2023/04/20 12:32:02;;;;;;;;;;;;;;;33.23;69.73;100321.09;5091333;27;66864;-44
2023/04/20 12:34:33;;;;;;;;;;;;;;;33.22;69.85;100333.03;5097501;27;70108;-44
2023/04/20 12:37:03;;;;;;;;;;;;;;;33.21;69.59;100336.00;5092143;27;66379;-45
2023/04/20 12:39:33;;;;;;;;;;;;;;;33.19;69.43;100333.53;5091923;27;70665;-46
2023/04/20 12:42:04;;;;;;;;;;;;;;;33.19;69.33;100344.41;5086521;27;66795;-45
2023/04/20 12:44:34;;;;;;;;;;;;;;;33.17;69.42;100343.84;5088062;27;70504;-45
2023/04/20 12:47:05;;;;;;;;;;;;;;;33.18;69.79;100341.94;5095760;27;66881;-46
2023/04/20 12:49:35;;;;;;;;;;;;;;;33.18;69.36;100352.81;5095683;27;69030;-44
2023/04/20 12:52:06;;;;;;;;;;;;;;;33.17;69.45;100356.59;5094866;27;65691;-44
2023/04/20 12:54:36;;;;;;;;;;;;;;;33.16;69.98;100358.50;5095986;27;70249;-45
2023/04/20 12:57:09;;;;;;;;;;;;;;;33.13;69.96;100367.16;5091519;27;66636;-45
2023/04/20 12:59:40;;;;;;;;;;;;;;;33.14;69.84;100374.22;5099075;27;70121;-45